| time (UTC) | temp F | wind direction | speed knots | gust knots | rain 1hr in | rain 24hr in | rain mn in | humidity % | barometer mb |
| 20260510130037 | 63 | 251 | 0.0 | 1.7 | 0.00 | 0.00 | 0.00 | 71 | 1012.1 |
| 20260510124542 | 63 | 262 | 0.0 | 0.9 | 0.00 | 0.00 | 0.00 | 74 | 1011.9 |
| 20260510123036 | 63 | 221 | 0.0 | 1.7 | 0.00 | 0.00 | 0.00 | 74 | 1011.9 |
| 20260510121536 | 64 | 238 | 0.0 | 0.0 | 0.00 | 0.00 | 0.00 | 76 | 1011.8 |
| 20260510120035 | 65 | 250 | 0.0 | 0.9 | 0.00 | 0.00 | 0.00 | 77 | 1012.4 |
| 20260510114535 | 66 | 259 | 5.2 | 10.4 | 0.00 | 0.00 | 0.00 | 78 | 1012.6 |
| 20260510113038 | 67 | 259 | 1.7 | 12.2 | 0.00 | 0.00 | 0.00 | 67 | 1012.5 |
| 20260510111536 | 66 | 299 | 0.9 | 5.2 | 0.00 | 0.00 | 0.00 | 63 | 1012.4 |
| 20260510110035 | 64 | 285 | 0.0 | 0.0 | 0.00 | 0.00 | 0.00 | 64 | 1012.2 |
| 20260510104530 | 64 | 285 | 0.0 | 0.0 | 0.00 | 0.00 | 0.00 | 64 | 1012.2 |
| 20260510103029 | 64 | 285 | 0.0 | 0.0 | 0.00 | 0.00 | 0.00 | 64 | 1012.1 |
| 20260510101528 | 64 | 285 | 0.0 | 0.0 | 0.00 | 0.00 | 0.00 | 64 | 1012.1 |
| 20260510100029 | 64 | 285 | 0.0 | 0.0 | 0.00 | 0.00 | 0.00 | 64 | 1012.0 |
| 20260510094526 | 64 | 285 | 0.0 | 0.0 | 0.00 | 0.00 | 0.00 | 64 | 1012.1 |
| 20260510093042 | 63 | 285 | 0.0 | 0.0 | 0.00 | 0.00 | 0.00 | 65 | 1011.9 |
| 20260510091528 | 63 | 285 | 0.0 | 0.0 | 0.00 | 0.00 | 0.00 | 65 | 1011.9 |
| 20260510090039 | 63 | 285 | 0.0 | 0.0 | 0.00 | 0.00 | 0.00 | 66 | 1011.9 |
| 20260510084523 | 63 | 285 | 0.0 | 0.0 | 0.00 | 0.00 | 0.00 | 66 | 1011.5 |
| 20260510083019 | 63 | 285 | 0.0 | 0.0 | 0.00 | 0.00 | 0.00 | 67 | 1011.3 |
| 20260510081517 | 63 | 285 | 0.0 | 0.0 | 0.00 | 0.00 | 0.00 | 67 | 1011.0 |
| 20260510080016 | 63 | 285 | 0.0 | 0.0 | 0.00 | 0.00 | 0.00 | 68 | 1011.0 |
| 20260510074516 | 63 | 285 | 0.0 | 0.0 | 0.00 | 0.00 | 0.00 | 69 | 1010.9 |
| 20260510073016 | 63 | 285 | 0.0 | 0.0 | 0.00 | 0.00 | 0.00 | 72 | 1011.0 |
| 20260510071512 | 64 | 285 | 0.0 | 0.0 | 0.00 | 0.00 | 0.00 | 72 | 1010.8 |
| 20260510070010 | 64 | 285 | 0.0 | 0.0 | 0.00 | 0.00 | 0.00 | 74 | 1010.8 |
| 20260510064508 | 65 | 285 | 0.0 | 0.0 | 0.00 | 0.00 | 0.00 | 73 | 1011.1 |
| 20260510063006 | 65 | 285 | 0.0 | 0.0 | 0.00 | 0.00 | 0.00 | 77 | 1011.0 |
| 20260510061501 | 66 | 286 | 0.0 | 0.0 | 0.00 | 0.00 | 0.00 | 82 | 1011.0 |
| 20260510060059 | 66 | 286 | 0.0 | 0.0 | 0.00 | 0.00 | 0.00 | 82 | 1011.2 |
| 20260510054557 | 67 | 285 | 0.0 | 0.9 | 0.00 | 0.00 | 0.00 | 83 | 1011.1 |
| 20260510053057 | 67 | 285 | 0.0 | 0.9 | 0.00 | 0.00 | 0.00 | 84 | 1011.0 |
| 20260510051556 | 67 | 269 | 0.0 | 0.0 | 0.00 | 0.00 | 0.00 | 85 | 1010.7 |
| 20260510050053 | 68 | 269 | 0.0 | 0.9 | 0.00 | 0.00 | 0.00 | 85 | 1010.5 |
| 20260510044609 | 68 | 250 | 0.0 | 0.9 | 0.00 | 0.00 | 0.00 | 85 | 1010.4 |
| 20260510043047 | 69 | 270 | 0.0 | 0.9 | 0.00 | 0.00 | 0.00 | 85 | 1010.4 |
| 20260510041548 | 69 | 277 | 0.0 | 0.9 | 0.00 | 0.00 | 0.00 | 84 | 1010.4 |
| 20260510040046 | 69 | 265 | 0.0 | 0.9 | 0.00 | 0.00 | 0.00 | 84 | 1010.3 |
| 20260510034544 | 69 | 269 | 0.0 | 0.9 | 0.00 | 0.00 | 0.00 | 83 | 1010.2 |
| 20260510033044 | 69 | 285 | 0.0 | 0.9 | 0.00 | 0.00 | 0.00 | 84 | 1010.2 |
| 20260510031541 | 70 | 285 | 0.0 | 0.9 | 0.00 | 0.00 | 0.00 | 83 | 1010.1 |
| 20260510030041 | 69 | 41 | 0.0 | 0.9 | 0.00 | 0.00 | 0.00 | 84 | 1009.8 |
| 20260510024539 | 69 | 334 | 0.0 | 0.0 | 0.00 | 0.00 | 0.00 | 83 | 1009.5 |
| 20260510023038 | 69 | 283 | 0.0 | 0.0 | 0.00 | 0.00 | 0.00 | 82 | 1009.2 |
| 20260510021537 | 69 | 286 | 0.0 | 0.0 | 0.00 | 0.00 | 0.00 | 82 | 1009.1 |
| 20260510020037 | 70 | 286 | 0.0 | 0.0 | 0.00 | 0.00 | 0.00 | 81 | 1008.8 |
| 20260510014537 | 70 | 291 | 0.0 | 0.0 | 0.00 | 0.00 | 0.00 | 80 | 1008.8 |
| 20260510013035 | 71 | 290 | 0.0 | 0.0 | 0.00 | 0.00 | 0.00 | 78 | 1008.6 |
| 20260510011535 | 72 | 290 | 0.0 | 0.0 | 0.00 | 0.00 | 0.00 | 77 | 1008.5 |
| 20260510010034 | 74 | 290 | 0.0 | 0.0 | 0.00 | 0.00 | 0.00 | 74 | 1008.2 |
| 20260510004536 | 76 | 290 | 0.0 | 0.0 | 0.00 | 0.00 | 0.00 | 69 | 1008.1 |
| 20260510003034 | 79 | 288 | 0.0 | 0.9 | 0.00 | 0.00 | 0.00 | 65 | 1008.0 |
| 20260510001533 | 80 | 13 | 0.0 | 0.9 | 0.00 | 0.00 | 0.00 | 61 | 1007.8 |
| 20260510000033 | 83 | 325 | 0.0 | 0.0 | 0.00 | 0.00 | 0.00 | 57 | 1007.7 |
| 20260509234532 | 82 | 354 | 0.0 | 0.0 | 0.00 | 0.00 | 0.00 | 58 | 1007.5 |
| 20260509233031 | 81 | 98 | 0.0 | 2.6 | 0.00 | 0.00 | 0.00 | 60 | 1007.5 |
| 20260509231532 | 81 | 100 | 0.0 | 3.5 | 0.00 | 0.00 | 0.00 | 59 | 1007.4 |
| 20260509230030 | 81 | 68 | 0.0 | 0.9 | 0.00 | 0.00 | 0.00 | 60 | 1007.4 |
| 20260509224535 | 80 | 75 | 0.0 | 0.9 | 0.00 | 0.00 | 0.00 | 62 | 1007.4 |
| 20260509223030 | 79 | 293 | 0.0 | 0.0 | 0.00 | 0.00 | 0.00 | 62 | 1007.2 |
| 20260509221530 | 79 | 291 | 0.0 | 0.9 | 0.00 | 0.00 | 0.00 | 61 | 1007.2 |
| 20260509220030 | 81 | 291 | 0.0 | 0.9 | 0.00 | 0.00 | 0.00 | 57 | 1007.2 |
| 20260509214530 | 83 | 86 | 0.0 | 2.6 | 0.00 | 0.00 | 0.00 | 54 | 1007.2 |
| 20260509213026 | 83 | 282 | 0.0 | 0.9 | 0.00 | 0.00 | 0.00 | 55 | 1007.1 |
| 20260509211529 | 83 | 297 | 0.0 | 3.5 | 0.00 | 0.00 | 0.00 | 55 | 1007.3 |
| 20260509210026 | 85 | 272 | 0.0 | 1.7 | 0.00 | 0.00 | 0.00 | 51 | 1007.3 |
| 20260509204523 | 85 | 235 | 0.0 | 2.6 | 0.00 | 0.00 | 0.00 | 51 | 1007.5 |
| 20260509203025 | 85 | 282 | 0.0 | 0.9 | 0.00 | 0.00 | 0.00 | 50 | 1007.6 |
| 20260509201521 | 84 | 266 | 0.0 | 1.7 | 0.00 | 0.00 | 0.00 | 53 | 1007.8 |
| 20260509200119 | 84 | 115 | 0.0 | 4.3 | 0.00 | 0.00 | 0.00 | 50 | 1008.1 |
| 20260509194520 | 83 | 269 | 0.0 | 0.9 | 0.00 | 0.00 | 0.00 | 52 | 1008.2 |
| 20260509193016 | 84 | 280 | 0.0 | 0.9 | 0.00 | 0.00 | 0.00 | 51 | 1008.3 |
| 20260509191516 | 84 | 8 | 0.0 | 1.7 | 0.00 | 0.00 | 0.00 | 53 | 1008.4 |
| 20260509190012 | 83 | 169 | 0.0 | 1.7 | 0.00 | 0.00 | 0.00 | 51 | 1008.4 |
| 20260509184512 | 82 | 309 | 0.0 | 2.6 | 0.00 | 0.00 | 0.00 | 55 | 1008.4 |
| 20260509183013 | 81 | 338 | 0.0 | 1.7 | 0.00 | 0.00 | 0.00 | 55 | 1008.7 |
| 20260509181507 | 82 | 72 | 0.0 | 1.7 | 0.00 | 0.00 | 0.00 | 51 | 1008.7 |
| 20260509180003 | 80 | 122 | 0.0 | 1.7 | 0.00 | 0.00 | 0.00 | 60 | 1008.9 |
| 20260509174502 | 79 | 136 | 0.0 | 1.7 | 0.00 | 0.00 | 0.00 | 63 | 1009.0 |
| 20260509173104 | 79 | 209 | 0.0 | 1.7 | 0.00 | 0.00 | 0.00 | 63 | 1009.1 |
| 20260509171600 | 78 | 151 | 0.9 | 2.6 | 0.00 | 0.00 | 0.00 | 60 | 1009.1 |
| 20260509170101 | 79 | 316 | 1.7 | 2.6 | 0.00 | 0.00 | 0.00 | 59 | 1009.1 |
| 20260509164608 | 79 | 134 | 0.9 | 4.3 | 0.00 | 0.00 | 0.00 | 59 | 1009.1 |
| 20260509163055 | 79 | 307 | 0.0 | 1.7 | 0.00 | 0.00 | 0.00 | 61 | 1008.9 |
| 20260509161556 | 77 | 167 | 0.0 | 3.5 | 0.00 | 0.00 | 0.00 | 65 | 1009.0 |
| 20260509160048 | 76 | 20 | 0.9 | 2.6 | 0.00 | 0.00 | 0.00 | 65 | 1009.0 |
| 20260509154545 | 75 | 340 | 0.9 | 2.6 | 0.00 | 0.00 | 0.00 | 68 | 1009.1 |
| 20260509153044 | 74 | 319 | 1.7 | 5.2 | 0.00 | 0.00 | 0.00 | 67 | 1009.1 |
| 20260509151541 | 73 | 313 | 1.7 | 4.3 | 0.00 | 0.00 | 0.00 | 69 | 1009.1 |
| 20260509150040 | 72 | 302 | 0.0 | 1.7 | 0.00 | 0.00 | 0.00 | 72 | 1009.2 |
| 20260509144541 | 71 | 297 | 0.9 | 5.2 | 0.00 | 0.00 | 0.00 | 72 | 1009.3 |
| 20260509143037 | 72 | 153 | 0.0 | 0.0 | 0.00 | 0.00 | 0.00 | 75 | 1009.3 |
| 20260509141534 | 70 | 172 | 0.0 | 0.0 | 0.00 | 0.00 | 0.00 | 78 | 1009.4 |
| 20260509140034 | 71 | 186 | 0.0 | 0.9 | 0.00 | 0.00 | 0.00 | 80 | 1009.6 |
| 20260509134527 | 67 | 248 | 0.0 | 0.0 | 0.00 | 0.00 | 0.00 | 84 | 1009.6 |
| 20260509133026 | 65 | 248 | 0.0 | 0.0 | 0.00 | 0.00 | 0.00 | 86 | 1009.8 |